sensor_id;sensor_type;location;lat;lon;timestamp;P1;durP1;ratioP1;P2;durP2;ratioP2
71464;SDS011;59274;49.874;9.154;2023-08-17T00:01:29;1.73;;;1.07;;
71464;SDS011;59274;49.874;9.154;2023-08-17T00:03:54;2.10;;;1.13;;
71464;SDS011;59274;49.874;9.154;2023-08-17T00:06:20;2.10;;;1.00;;
71464;SDS011;59274;49.874;9.154;2023-08-17T00:08:45;1.43;;;1.13;;
71464;SDS011;59274;49.874;9.154;2023-08-17T00:11:11;1.90;;;1.10;;
71464;SDS011;59274;49.874;9.154;2023-08-17T00:13:36;3.20;;;1.30;;
71464;SDS011;59274;49.874;9.154;2023-08-17T00:16:02;3.40;;;1.80;;
71464;SDS011;59274;49.874;9.154;2023-08-17T00:18:30;5.80;;;3.03;;
71464;SDS011;59274;49.874;9.154;2023-08-17T00:20:55;6.30;;;3.42;;
71464;SDS011;59274;49.874;9.154;2023-08-17T00:23:21;7.43;;;3.43;;
71464;SDS011;59274;49.874;9.154;2023-08-17T00:25:47;6.50;;;3.27;;
71464;SDS011;59274;49.874;9.154;2023-08-17T00:28:13;7.05;;;3.28;;
71464;SDS011;59274;49.874;9.154;2023-08-17T00:30:39;6.68;;;3.30;;
71464;SDS011;59274;49.874;9.154;2023-08-17T00:33:04;6.23;;;3.10;;
71464;SDS011;59274;49.874;9.154;2023-08-17T00:35:30;4.53;;;2.60;;
71464;SDS011;59274;49.874;9.154;2023-08-17T00:37:57;8.18;;;2.50;;
71464;SDS011;59274;49.874;9.154;2023-08-17T00:40:23;6.20;;;2.70;;
71464;SDS011;59274;49.874;9.154;2023-08-17T00:42:48;4.03;;;2.40;;
71464;SDS011;59274;49.874;9.154;2023-08-17T00:45:14;7.38;;;2.47;;
71464;SDS011;59274;49.874;9.154;2023-08-17T00:47:40;7.35;;;2.42;;
71464;SDS011;59274;49.874;9.154;2023-08-17T00:50:07;5.68;;;2.45;;
71464;SDS011;59274;49.874;9.154;2023-08-17T00:52:33;5.67;;;2.27;;
71464;SDS011;59274;49.874;9.154;2023-08-17T00:54:58;4.60;;;2.40;;
71464;SDS011;59274;49.874;9.154;2023-08-17T00:57:25;4.40;;;2.40;;
71464;SDS011;59274;49.874;9.154;2023-08-17T00:59:51;3.07;;;1.90;;
71464;SDS011;59274;49.874;9.154;2023-08-17T01:02:17;4.90;;;2.30;;
71464;SDS011;59274;49.874;9.154;2023-08-17T01:04:44;3.90;;;1.90;;
71464;SDS011;59274;49.874;9.154;2023-08-17T01:07:09;3.73;;;1.90;;
71464;SDS011;59274;49.874;9.154;2023-08-17T01:09:35;4.87;;;2.37;;
71464;SDS011;59274;49.874;9.154;2023-08-17T01:12:35;5.47;;;2.20;;
71464;SDS011;59274;49.874;9.154;2023-08-17T01:17:26;3.67;;;1.88;;
71464;SDS011;59274;49.874;9.154;2023-08-17T01:19:58;4.27;;;2.20;;
71464;SDS011;59274;49.874;9.154;2023-08-17T01:22:24;3.40;;;1.90;;
71464;SDS011;59274;49.874;9.154;2023-08-17T01:24:54;4.00;;;1.88;;
71464;SDS011;59274;49.874;9.154;2023-08-17T01:27:23;3.72;;;1.73;;
71464;SDS011;59274;49.874;9.154;2023-08-17T01:29:50;4.60;;;1.65;;
71464;SDS011;59274;49.874;9.154;2023-08-17T01:35:11;3.67;;;1.58;;
71464;SDS011;59274;49.874;9.154;2023-08-17T01:37:47;3.20;;;1.50;;
71464;SDS011;59274;49.874;9.154;2023-08-17T01:40:17;3.10;;;1.60;;
71464;SDS011;59274;49.874;9.154;2023-08-17T01:42:44;3.97;;;1.45;;
71464;SDS011;59274;49.874;9.154;2023-08-17T01:45:09;3.93;;;1.67;;
71464;SDS011;59274;49.874;9.154;2023-08-17T01:47:36;4.03;;;1.80;;
71464;SDS011;59274;49.874;9.154;2023-08-17T01:50:01;6.57;;;2.20;;
71464;SDS011;59274;49.874;9.154;2023-08-17T01:52:27;3.40;;;2.00;;
71464;SDS011;59274;49.874;9.154;2023-08-17T01:54:53;4.68;;;1.88;;
71464;SDS011;59274;49.874;9.154;2023-08-17T01:57:19;5.55;;;2.15;;
71464;SDS011;59274;49.874;9.154;2023-08-17T01:59:44;3.33;;;1.87;;
71464;SDS011;59274;49.874;9.154;2023-08-17T02:02:10;3.23;;;1.57;;
71464;SDS011;59274;49.874;9.154;2023-08-17T02:04:36;3.80;;;1.92;;
71464;SDS011;59274;49.874;9.154;2023-08-17T02:07:02;2.33;;;1.50;;
71464;SDS011;59274;49.874;9.154;2023-08-17T02:09:28;3.00;;;1.90;;
71464;SDS011;59274;49.874;9.154;2023-08-17T02:11:54;3.30;;;1.67;;
71464;SDS011;59274;49.874;9.154;2023-08-17T02:14:19;5.10;;;1.70;;
71464;SDS011;59274;49.874;9.154;2023-08-17T02:16:44;3.07;;;1.70;;
71464;SDS011;59274;49.874;9.154;2023-08-17T02:19:10;4.87;;;2.20;;
71464;SDS011;59274;49.874;9.154;2023-08-17T02:21:35;3.80;;;2.07;;
71464;SDS011;59274;49.874;9.154;2023-08-17T02:24:04;4.35;;;2.13;;
71464;SDS011;59274;49.874;9.154;2023-08-17T02:26:30;4.20;;;2.00;;
71464;SDS011;59274;49.874;9.154;2023-08-17T02:28:55;3.77;;;2.10;;
71464;SDS011;59274;49.874;9.154;2023-08-17T02:31:21;5.00;;;2.30;;
71464;SDS011;59274;49.874;9.154;2023-08-17T02:33:46;4.50;;;2.23;;
71464;SDS011;59274;49.874;9.154;2023-08-17T02:36:11;3.57;;;2.00;;
71464;SDS011;59274;49.874;9.154;2023-08-17T02:38:37;3.97;;;1.88;;
71464;SDS011;59274;49.874;9.154;2023-08-17T02:41:02;5.00;;;2.20;;
71464;SDS011;59274;49.874;9.154;2023-08-17T02:43:28;4.13;;;1.87;;
71464;SDS011;59274;49.874;9.154;2023-08-17T02:45:53;3.70;;;1.90;;
71464;SDS011;59274;49.874;9.154;2023-08-17T02:48:21;3.78;;;1.73;;
71464;SDS011;59274;49.874;9.154;2023-08-17T02:50:47;4.47;;;1.85;;
71464;SDS011;59274;49.874;9.154;2023-08-17T02:53:12;2.70;;;1.50;;
71464;SDS011;59274;49.874;9.154;2023-08-17T02:55:38;4.13;;;2.10;;
71464;SDS011;59274;49.874;9.154;2023-08-17T02:58:03;4.67;;;2.20;;
71464;SDS011;59274;49.874;9.154;2023-08-17T03:00:28;4.65;;;2.05;;
71464;SDS011;59274;49.874;9.154;2023-08-17T03:02:54;3.28;;;1.83;;
71464;SDS011;59274;49.874;9.154;2023-08-17T03:05:19;2.87;;;1.57;;
71464;SDS011;59274;49.874;9.154;2023-08-17T03:07:45;6.17;;;2.20;;
71464;SDS011;59274;49.874;9.154;2023-08-17T03:10:10;3.93;;;1.90;;
71464;SDS011;59274;49.874;9.154;2023-08-17T03:12:36;5.22;;;1.95;;
71464;SDS011;59274;49.874;9.154;2023-08-17T03:15:03;3.53;;;2.00;;
71464;SDS011;59274;49.874;9.154;2023-08-17T03:17:30;4.10;;;2.08;;
71464;SDS011;59274;49.874;9.154;2023-08-17T03:19:55;3.23;;;2.03;;
71464;SDS011;59274;49.874;9.154;2023-08-17T03:22:24;4.18;;;2.10;;
71464;SDS011;59274;49.874;9.154;2023-08-17T03:24:50;4.10;;;2.22;;
71464;SDS011;59274;49.874;9.154;2023-08-17T03:27:15;3.77;;;2.10;;
71464;SDS011;59274;49.874;9.154;2023-08-17T03:29:40;4.80;;;1.93;;
71464;SDS011;59274;49.874;9.154;2023-08-17T03:32:06;3.00;;;1.60;;
71464;SDS011;59274;49.874;9.154;2023-08-17T03:34:31;6.25;;;2.40;;
71464;SDS011;59274;49.874;9.154;2023-08-17T03:36:57;3.17;;;1.60;;
71464;SDS011;59274;49.874;9.154;2023-08-17T03:39:22;3.93;;;1.90;;
71464;SDS011;59274;49.874;9.154;2023-08-17T03:41:48;4.90;;;1.93;;
71464;SDS011;59274;49.874;9.154;2023-08-17T03:44:13;7.15;;;2.20;;
71464;SDS011;59274;49.874;9.154;2023-08-17T03:46:40;4.25;;;2.20;;
71464;SDS011;59274;49.874;9.154;2023-08-17T03:49:06;5.37;;;1.93;;
71464;SDS011;59274;49.874;9.154;2023-08-17T03:51:31;7.07;;;2.57;;
71464;SDS011;59274;49.874;9.154;2023-08-17T03:53:57;6.27;;;2.50;;
71464;SDS011;59274;49.874;9.154;2023-08-17T03:56:22;5.03;;;2.50;;
71464;SDS011;59274;49.874;9.154;2023-08-17T03:58:52;5.67;;;2.50;;
71464;SDS011;59274;49.874;9.154;2023-08-17T04:01:18;4.85;;;2.42;;
71464;SDS011;59274;49.874;9.154;2023-08-17T04:03:43;7.60;;;3.20;;
71464;SDS011;59274;49.874;9.154;2023-08-17T04:06:09;6.77;;;2.87;;
71464;SDS011;59274;49.874;9.154;2023-08-17T04:08:38;5.47;;;2.60;;
71464;SDS011;59274;49.874;9.154;2023-08-17T04:11:03;5.90;;;3.13;;
71464;SDS011;59274;49.874;9.154;2023-08-17T04:13:29;4.63;;;2.40;;
71464;SDS011;59274;49.874;9.154;2023-08-17T04:15:55;4.35;;;2.45;;
71464;SDS011;59274;49.874;9.154;2023-08-17T04:18:21;5.27;;;2.23;;
71464;SDS011;59274;49.874;9.154;2023-08-17T04:20:49;5.28;;;2.67;;
71464;SDS011;59274;49.874;9.154;2023-08-17T04:23:15;5.45;;;2.55;;
71464;SDS011;59274;49.874;9.154;2023-08-17T04:25:41;5.87;;;2.67;;
71464;SDS011;59274;49.874;9.154;2023-08-17T04:28:07;6.43;;;2.80;;
71464;SDS011;59274;49.874;9.154;2023-08-17T04:30:32;5.87;;;2.77;;
71464;SDS011;59274;49.874;9.154;2023-08-17T04:32:58;6.67;;;3.13;;
71464;SDS011;59274;49.874;9.154;2023-08-17T04:35:23;5.95;;;2.78;;
71464;SDS011;59274;49.874;9.154;2023-08-17T04:37:49;9.10;;;2.90;;
71464;SDS011;59274;49.874;9.154;2023-08-17T04:40:14;6.53;;;3.33;;
71464;SDS011;59274;49.874;9.154;2023-08-17T04:42:40;5.68;;;2.35;;
71464;SDS011;59274;49.874;9.154;2023-08-17T04:45:05;7.25;;;2.95;;
71464;SDS011;59274;49.874;9.154;2023-08-17T04:47:31;7.68;;;3.30;;
71464;SDS011;59274;49.874;9.154;2023-08-17T04:49:57;7.57;;;3.50;;
71464;SDS011;59274;49.874;9.154;2023-08-17T04:52:22;7.00;;;3.00;;
71464;SDS011;59274;49.874;9.154;2023-08-17T04:54:47;8.27;;;3.47;;
71464;SDS011;59274;49.874;9.154;2023-08-17T04:57:13;6.23;;;2.50;;
71464;SDS011;59274;49.874;9.154;2023-08-17T04:59:38;5.75;;;3.25;;
71464;SDS011;59274;49.874;9.154;2023-08-17T05:02:05;7.87;;;3.27;;
71464;SDS011;59274;49.874;9.154;2023-08-17T05:04:30;8.02;;;3.83;;
71464;SDS011;59274;49.874;9.154;2023-08-17T05:06:56;11.60;;;4.47;;
71464;SDS011;59274;49.874;9.154;2023-08-17T05:09:21;10.33;;;4.23;;
71464;SDS011;59274;49.874;9.154;2023-08-17T05:11:47;9.63;;;3.67;;
71464;SDS011;59274;49.874;9.154;2023-08-17T05:14:13;6.73;;;3.07;;
71464;SDS011;59274;49.874;9.154;2023-08-17T05:16:38;6.93;;;3.23;;
71464;SDS011;59274;49.874;9.154;2023-08-17T05:19:04;8.30;;;4.03;;
71464;SDS011;59274;49.874;9.154;2023-08-17T05:21:29;8.03;;;3.17;;
71464;SDS011;59274;49.874;9.154;2023-08-17T05:23:55;7.97;;;3.90;;
71464;SDS011;59274;49.874;9.154;2023-08-17T05:26:21;7.68;;;3.28;;
71464;SDS011;59274;49.874;9.154;2023-08-17T05:28:47;8.40;;;2.90;;
71464;SDS011;59274;49.874;9.154;2023-08-17T05:31:13;7.70;;;3.10;;
71464;SDS011;59274;49.874;9.154;2023-08-17T05:33:39;9.37;;;4.10;;
71464;SDS011;59274;49.874;9.154;2023-08-17T05:36:06;8.98;;;4.28;;
71464;SDS011;59274;49.874;9.154;2023-08-17T05:38:32;10.32;;;3.50;;
71464;SDS011;59274;49.874;9.154;2023-08-17T05:40:58;10.00;;;3.75;;
71464;SDS011;59274;49.874;9.154;2023-08-17T05:43:24;8.13;;;3.42;;
71464;SDS011;59274;49.874;9.154;2023-08-17T05:45:50;6.65;;;3.08;;
71464;SDS011;59274;49.874;9.154;2023-08-17T05:48:15;6.93;;;3.17;;
71464;SDS011;59274;49.874;9.154;2023-08-17T05:50:41;6.60;;;2.92;;
71464;SDS011;59274;49.874;9.154;2023-08-17T05:53:07;7.15;;;3.13;;
71464;SDS011;59274;49.874;9.154;2023-08-17T05:55:33;6.43;;;2.38;;
71464;SDS011;59274;49.874;9.154;2023-08-17T05:57:58;9.80;;;2.77;;
71464;SDS011;59274;49.874;9.154;2023-08-17T06:00:24;5.47;;;2.10;;
71464;SDS011;59274;49.874;9.154;2023-08-17T06:02:52;6.78;;;2.80;;
71464;SDS011;59274;49.874;9.154;2023-08-17T06:05:22;5.38;;;2.45;;
71464;SDS011;59274;49.874;9.154;2023-08-17T06:07:50;6.40;;;2.40;;
71464;SDS011;59274;49.874;9.154;2023-08-17T06:10:15;4.35;;;2.10;;
71464;SDS011;59274;49.874;9.154;2023-08-17T06:12:41;4.83;;;2.17;;
71464;SDS011;59274;49.874;9.154;2023-08-17T06:15:07;4.07;;;1.90;;
71464;SDS011;59274;49.874;9.154;2023-08-17T06:17:33;3.97;;;1.90;;
71464;SDS011;59274;49.874;9.154;2023-08-17T06:19:58;4.78;;;1.75;;
71464;SDS011;59274;49.874;9.154;2023-08-17T06:22:24;4.00;;;2.00;;
71464;SDS011;59274;49.874;9.154;2023-08-17T06:24:49;5.00;;;2.17;;
71464;SDS011;59274;49.874;9.154;2023-08-17T06:27:14;4.97;;;2.10;;
71464;SDS011;59274;49.874;9.154;2023-08-17T06:29:40;4.40;;;2.30;;
71464;SDS011;59274;49.874;9.154;2023-08-17T06:32:06;4.87;;;1.90;;
71464;SDS011;59274;49.874;9.154;2023-08-17T06:34:32;5.53;;;2.30;;
71464;SDS011;59274;49.874;9.154;2023-08-17T06:36:58;6.47;;;2.43;;
71464;SDS011;59274;49.874;9.154;2023-08-17T06:39:27;6.43;;;2.38;;
71464;SDS011;59274;49.874;9.154;2023-08-17T06:41:53;8.00;;;2.67;;
71464;SDS011;59274;49.874;9.154;2023-08-17T06:44:19;6.03;;;2.80;;
71464;SDS011;59274;49.874;9.154;2023-08-17T06:46:45;5.97;;;3.03;;
71464;SDS011;59274;49.874;9.154;2023-08-17T06:49:11;7.57;;;3.00;;
71464;SDS011;59274;49.874;9.154;2023-08-17T06:51:37;5.80;;;2.85;;
71464;SDS011;59274;49.874;9.154;2023-08-17T06:54:03;5.90;;;3.37;;
71464;SDS011;59274;49.874;9.154;2023-08-17T06:56:29;5.97;;;3.20;;
71464;SDS011;59274;49.874;9.154;2023-08-17T06:58:55;7.00;;;2.97;;
71464;SDS011;59274;49.874;9.154;2023-08-17T07:01:20;6.25;;;2.67;;
71464;SDS011;59274;49.874;9.154;2023-08-17T07:03:46;5.47;;;2.83;;
71464;SDS011;59274;49.874;9.154;2023-08-17T07:06:12;6.40;;;2.92;;
71464;SDS011;59274;49.874;9.154;2023-08-17T07:08:38;4.50;;;2.50;;
71464;SDS011;59274;49.874;9.154;2023-08-17T07:11:04;4.40;;;2.22;;
71464;SDS011;59274;49.874;9.154;2023-08-17T07:13:30;5.70;;;2.67;;
71464;SDS011;59274;49.874;9.154;2023-08-17T07:15:56;5.73;;;2.90;;
71464;SDS011;59274;49.874;9.154;2023-08-17T07:18:21;5.97;;;2.73;;
71464;SDS011;59274;49.874;9.154;2023-08-17T07:20:47;6.00;;;3.15;;
71464;SDS011;59274;49.874;9.154;2023-08-17T07:23:12;6.87;;;3.23;;
71464;SDS011;59274;49.874;9.154;2023-08-17T07:25:38;6.83;;;3.83;;
71464;SDS011;59274;49.874;9.154;2023-08-17T07:28:03;5.27;;;2.93;;
71464;SDS011;59274;49.874;9.154;2023-08-17T07:30:29;6.97;;;3.38;;
71464;SDS011;59274;49.874;9.154;2023-08-17T07:32:54;5.93;;;3.00;;
71464;SDS011;59274;49.874;9.154;2023-08-17T07:35:20;5.67;;;2.73;;
71464;SDS011;59274;49.874;9.154;2023-08-17T07:37:45;6.45;;;3.08;;
71464;SDS011;59274;49.874;9.154;2023-08-17T07:40:11;5.33;;;3.03;;
71464;SDS011;59274;49.874;9.154;2023-08-17T07:42:36;7.83;;;3.63;;
71464;SDS011;59274;49.874;9.154;2023-08-17T07:45:02;5.18;;;2.88;;
71464;SDS011;59274;49.874;9.154;2023-08-17T07:47:31;5.30;;;2.58;;
71464;SDS011;59274;49.874;9.154;2023-08-17T07:49:57;6.00;;;3.33;;
71464;SDS011;59274;49.874;9.154;2023-08-17T07:52:23;5.28;;;2.83;;
71464;SDS011;59274;49.874;9.154;2023-08-17T07:54:48;7.38;;;3.90;;
71464;SDS011;59274;49.874;9.154;2023-08-17T07:57:14;6.43;;;3.27;;
71464;SDS011;59274;49.874;9.154;2023-08-17T07:59:39;8.33;;;3.77;;
71464;SDS011;59274;49.874;9.154;2023-08-17T08:02:05;7.25;;;4.07;;
71464;SDS011;59274;49.874;9.154;2023-08-17T08:04:31;6.80;;;3.73;;
71464;SDS011;59274;49.874;9.154;2023-08-17T08:06:56;7.32;;;3.95;;
71464;SDS011;59274;49.874;9.154;2023-08-17T08:09:22;7.57;;;4.13;;
71464;SDS011;59274;49.874;9.154;2023-08-17T08:11:47;9.17;;;5.13;;
71464;SDS011;59274;49.874;9.154;2023-08-17T08:14:12;7.63;;;4.37;;
71464;SDS011;59274;49.874;9.154;2023-08-17T08:16:38;8.43;;;4.33;;
71464;SDS011;59274;49.874;9.154;2023-08-17T08:19:03;7.82;;;4.20;;
71464;SDS011;59274;49.874;9.154;2023-08-17T08:21:29;10.33;;;4.87;;
71464;SDS011;59274;49.874;9.154;2023-08-17T08:23:54;6.87;;;4.00;;
71464;SDS011;59274;49.874;9.154;2023-08-17T08:26:21;9.23;;;4.75;;
71464;SDS011;59274;49.874;9.154;2023-08-17T08:28:47;9.70;;;5.23;;
71464;SDS011;59274;49.874;9.154;2023-08-17T08:31:12;8.67;;;4.30;;
71464;SDS011;59274;49.874;9.154;2023-08-17T08:33:37;9.57;;;4.63;;
71464;SDS011;59274;49.874;9.154;2023-08-17T08:36:03;8.50;;;5.00;;
71464;SDS011;59274;49.874;9.154;2023-08-17T08:38:31;9.52;;;5.43;;
71464;SDS011;59274;49.874;9.154;2023-08-17T08:40:56;9.10;;;5.50;;
71464;SDS011;59274;49.874;9.154;2023-08-17T08:43:22;8.70;;;4.95;;
71464;SDS011;59274;49.874;9.154;2023-08-17T08:45:48;7.35;;;4.00;;
71464;SDS011;59274;49.874;9.154;2023-08-17T08:48:16;7.20;;;4.18;;
71464;SDS011;59274;49.874;9.154;2023-08-17T08:50:43;8.07;;;4.53;;
71464;SDS011;59274;49.874;9.154;2023-08-17T08:53:14;8.10;;;4.50;;
71464;SDS011;59274;49.874;9.154;2023-08-17T08:55:47;7.90;;;4.43;;
71464;SDS011;59274;49.874;9.154;2023-08-17T08:58:18;8.30;;;4.50;;
71464;SDS011;59274;49.874;9.154;2023-08-17T09:00:45;7.82;;;4.18;;
71464;SDS011;59274;49.874;9.154;2023-08-17T09:03:12;7.50;;;3.83;;
71464;SDS011;59274;49.874;9.154;2023-08-17T09:05:40;9.75;;;5.00;;
71464;SDS011;59274;49.874;9.154;2023-08-17T09:08:08;7.25;;;4.13;;
71464;SDS011;59274;49.874;9.154;2023-08-17T09:10:36;7.10;;;4.03;;
71464;SDS011;59274;49.874;9.154;2023-08-17T09:13:03;10.05;;;5.28;;
71464;SDS011;59274;49.874;9.154;2023-08-17T09:15:30;8.07;;;5.07;;
71464;SDS011;59274;49.874;9.154;2023-08-17T09:17:55;9.23;;;5.43;;
71464;SDS011;59274;49.874;9.154;2023-08-17T09:20:38;10.07;;;5.30;;
71464;SDS011;59274;49.874;9.154;2023-08-17T09:23:11;8.80;;;4.63;;
71464;SDS011;59274;49.874;9.154;2023-08-17T09:25:41;8.50;;;5.30;;
71464;SDS011;59274;49.874;9.154;2023-08-17T09:28:08;8.70;;;4.80;;
71464;SDS011;59274;49.874;9.154;2023-08-17T09:31:02;7.47;;;4.38;;
71464;SDS011;59274;49.874;9.154;2023-08-17T09:33:31;8.50;;;3.97;;
71464;SDS011;59274;49.874;9.154;2023-08-17T09:35:58;8.23;;;4.65;;
71464;SDS011;59274;49.874;9.154;2023-08-17T09:38:25;7.60;;;4.03;;
71464;SDS011;59274;49.874;9.154;2023-08-17T09:40:51;7.37;;;4.30;;
71464;SDS011;59274;49.874;9.154;2023-08-17T09:43:17;10.13;;;4.35;;
71464;SDS011;59274;49.874;9.154;2023-08-17T09:45:47;7.93;;;4.47;;
71464;SDS011;59274;49.874;9.154;2023-08-17T09:48:15;9.95;;;5.10;;
71464;SDS011;59274;49.874;9.154;2023-08-17T09:50:42;9.27;;;4.60;;
71464;SDS011;59274;49.874;9.154;2023-08-17T09:53:17;8.23;;;4.40;;
71464;SDS011;59274;49.874;9.154;2023-08-17T09:55:47;8.18;;;4.50;;
71464;SDS011;59274;49.874;9.154;2023-08-17T09:58:12;7.72;;;4.40;;
71464;SDS011;59274;49.874;9.154;2023-08-17T10:00:48;6.95;;;3.90;;
71464;SDS011;59274;49.874;9.154;2023-08-17T10:03:15;8.40;;;4.80;;
71464;SDS011;59274;49.874;9.154;2023-08-17T10:05:46;8.27;;;4.65;;
71464;SDS011;59274;49.874;9.154;2023-08-17T10:08:19;8.23;;;4.10;;
71464;SDS011;59274;49.874;9.154;2023-08-17T10:10:46;7.03;;;3.75;;
71464;SDS011;59274;49.874;9.154;2023-08-17T10:18:45;7.88;;;3.55;;
71464;SDS011;59274;49.874;9.154;2023-08-17T10:21:54;6.72;;;3.35;;
71464;SDS011;59274;49.874;9.154;2023-08-17T10:24:16;7.95;;;4.10;;
71464;SDS011;59274;49.874;9.154;2023-08-17T10:26:44;7.32;;;3.50;;
71464;SDS011;59274;49.874;9.154;2023-08-17T10:29:10;6.82;;;3.97;;
71464;SDS011;59274;49.874;9.154;2023-08-17T10:31:35;8.32;;;4.13;;
71464;SDS011;59274;49.874;9.154;2023-08-17T10:34:01;7.57;;;3.97;;
71464;SDS011;59274;49.874;9.154;2023-08-17T10:36:27;7.03;;;3.75;;
71464;SDS011;59274;49.874;9.154;2023-08-17T10:41:48;7.55;;;4.13;;
71464;SDS011;59274;49.874;9.154;2023-08-17T10:44:37;8.20;;;4.00;;
71464;SDS011;59274;49.874;9.154;2023-08-17T10:47:23;7.13;;;3.90;;
71464;SDS011;59274;49.874;9.154;2023-08-17T10:50:03;6.75;;;3.33;;
71464;SDS011;59274;49.874;9.154;2023-08-17T10:52:32;6.27;;;3.33;;
71464;SDS011;59274;49.874;9.154;2023-08-17T10:55:03;6.10;;;3.40;;
71464;SDS011;59274;49.874;9.154;2023-08-17T11:02:58;5.50;;;3.08;;
71464;SDS011;59274;49.874;9.154;2023-08-17T11:05:39;6.27;;;2.90;;
71464;SDS011;59274;49.874;9.154;2023-08-17T11:08:22;6.43;;;2.88;;
71464;SDS011;59274;49.874;9.154;2023-08-17T11:10:58;6.43;;;3.63;;
71464;SDS011;59274;49.874;9.154;2023-08-17T11:13:43;6.22;;;3.67;;
71464;SDS011;59274;49.874;9.154;2023-08-17T11:16:10;6.25;;;3.05;;
71464;SDS011;59274;49.874;9.154;2023-08-17T11:18:37;5.27;;;2.90;;
71464;SDS011;59274;49.874;9.154;2023-08-17T11:21:03;6.75;;;3.33;;
71464;SDS011;59274;49.874;9.154;2023-08-17T11:23:30;5.70;;;3.30;;
71464;SDS011;59274;49.874;9.154;2023-08-17T11:25:57;5.97;;;3.38;;
71464;SDS011;59274;49.874;9.154;2023-08-17T11:28:24;4.60;;;2.83;;
71464;SDS011;59274;49.874;9.154;2023-08-17T11:30:59;6.43;;;3.03;;
71464;SDS011;59274;49.874;9.154;2023-08-17T11:33:26;6.03;;;3.25;;
71464;SDS011;59274;49.874;9.154;2023-08-17T11:35:56;5.45;;;3.15;;
71464;SDS011;59274;49.874;9.154;2023-08-17T11:38:21;5.55;;;3.38;;
71464;SDS011;59274;49.874;9.154;2023-08-17T11:40:48;5.93;;;3.03;;
71464;SDS011;59274;49.874;9.154;2023-08-17T11:43:14;7.05;;;3.50;;
71464;SDS011;59274;49.874;9.154;2023-08-17T11:45:40;5.30;;;3.10;;
71464;SDS011;59274;49.874;9.154;2023-08-17T11:48:06;5.75;;;3.33;;
71464;SDS011;59274;49.874;9.154;2023-08-17T11:50:32;4.75;;;2.90;;
71464;SDS011;59274;49.874;9.154;2023-08-17T11:53:01;5.47;;;3.40;;
71464;SDS011;59274;49.874;9.154;2023-08-17T11:55:27;5.78;;;3.10;;
71464;SDS011;59274;49.874;9.154;2023-08-17T11:57:53;7.82;;;3.53;;
71464;SDS011;59274;49.874;9.154;2023-08-17T12:00:19;5.13;;;3.03;;
71464;SDS011;59274;49.874;9.154;2023-08-17T12:02:49;6.05;;;3.08;;
71464;SDS011;59274;49.874;9.154;2023-08-17T12:05:19;5.20;;;2.83;;
71464;SDS011;59274;49.874;9.154;2023-08-17T12:07:48;5.57;;;2.95;;
71464;SDS011;59274;49.874;9.154;2023-08-17T12:10:14;5.07;;;2.85;;
71464;SDS011;59274;49.874;9.154;2023-08-17T12:12:39;4.90;;;2.73;;
71464;SDS011;59274;49.874;9.154;2023-08-17T12:15:05;5.55;;;3.08;;
71464;SDS011;59274;49.874;9.154;2023-08-17T12:17:31;5.17;;;3.17;;
71464;SDS011;59274;49.874;9.154;2023-08-17T12:19:58;6.35;;;3.10;;
71464;SDS011;59274;49.874;9.154;2023-08-17T12:22:24;4.78;;;2.90;;
71464;SDS011;59274;49.874;9.154;2023-08-17T12:24:51;5.25;;;3.10;;
71464;SDS011;59274;49.874;9.154;2023-08-17T12:27:17;4.65;;;2.75;;
71464;SDS011;59274;49.874;9.154;2023-08-17T12:29:49;4.15;;;2.80;;
71464;SDS011;59274;49.874;9.154;2023-08-17T12:32:16;4.30;;;2.75;;
71464;SDS011;59274;49.874;9.154;2023-08-17T12:34:42;4.72;;;2.78;;
71464;SDS011;59274;49.874;9.154;2023-08-17T12:37:08;5.50;;;3.07;;
71464;SDS011;59274;49.874;9.154;2023-08-17T12:39:35;4.65;;;2.92;;
71464;SDS011;59274;49.874;9.154;2023-08-17T12:42:01;4.40;;;2.70;;
71464;SDS011;59274;49.874;9.154;2023-08-17T12:44:27;5.38;;;2.80;;
71464;SDS011;59274;49.874;9.154;2023-08-17T12:46:52;3.47;;;2.30;;
71464;SDS011;59274;49.874;9.154;2023-08-17T12:49:17;5.45;;;3.00;;
71464;SDS011;59274;49.874;9.154;2023-08-17T12:51:43;6.43;;;3.20;;
71464;SDS011;59274;49.874;9.154;2023-08-17T12:54:08;4.10;;;2.60;;
71464;SDS011;59274;49.874;9.154;2023-08-17T12:56:34;4.50;;;2.30;;
71464;SDS011;59274;49.874;9.154;2023-08-17T12:58:59;4.38;;;2.67;;
71464;SDS011;59274;49.874;9.154;2023-08-17T13:01:25;5.30;;;3.10;;
71464;SDS011;59274;49.874;9.154;2023-08-17T13:03:50;5.10;;;2.80;;
71464;SDS011;59274;49.874;9.154;2023-08-17T13:06:16;5.30;;;3.00;;
71464;SDS011;59274;49.874;9.154;2023-08-17T13:08:42;4.57;;;2.53;;
71464;SDS011;59274;49.874;9.154;2023-08-17T13:11:07;5.43;;;2.60;;
71464;SDS011;59274;49.874;9.154;2023-08-17T13:13:32;4.75;;;2.60;;
71464;SDS011;59274;49.874;9.154;2023-08-17T13:15:58;5.20;;;2.70;;
71464;SDS011;59274;49.874;9.154;2023-08-17T13:18:23;5.07;;;2.87;;
71464;SDS011;59274;49.874;9.154;2023-08-17T13:20:49;4.70;;;2.70;;
71464;SDS011;59274;49.874;9.154;2023-08-17T13:23:14;5.87;;;2.90;;
71464;SDS011;59274;49.874;9.154;2023-08-17T13:25:40;4.43;;;2.70;;
71464;SDS011;59274;49.874;9.154;2023-08-17T13:28:05;4.22;;;2.60;;
71464;SDS011;59274;49.874;9.154;2023-08-17T13:30:31;4.80;;;3.00;;
71464;SDS011;59274;49.874;9.154;2023-08-17T13:32:57;4.20;;;2.43;;
71464;SDS011;59274;49.874;9.154;2023-08-17T13:35:22;4.87;;;2.87;;
71464;SDS011;59274;49.874;9.154;2023-08-17T13:37:51;4.37;;;2.60;;
71464;SDS011;59274;49.874;9.154;2023-08-17T13:40:22;4.20;;;2.60;;
71464;SDS011;59274;49.874;9.154;2023-08-17T13:42:48;4.57;;;2.80;;
71464;SDS011;59274;49.874;9.154;2023-08-17T13:45:13;4.97;;;2.47;;
71464;SDS011;59274;49.874;9.154;2023-08-17T13:47:38;4.07;;;2.63;;
71464;SDS011;59274;49.874;9.154;2023-08-17T13:50:04;4.30;;;2.60;;
71464;SDS011;59274;49.874;9.154;2023-08-17T13:52:30;3.95;;;2.60;;
71464;SDS011;59274;49.874;9.154;2023-08-17T13:54:55;5.53;;;2.57;;
71464;SDS011;59274;49.874;9.154;2023-08-17T13:57:21;4.03;;;2.43;;
71464;SDS011;59274;49.874;9.154;2023-08-17T13:59:46;4.28;;;2.47;;
71464;SDS011;59274;49.874;9.154;2023-08-17T14:02:12;5.70;;;2.77;;
71464;SDS011;59274;49.874;9.154;2023-08-17T14:04:37;6.00;;;2.70;;
71464;SDS011;59274;49.874;9.154;2023-08-17T14:07:03;3.93;;;2.30;;
71464;SDS011;59274;49.874;9.154;2023-08-17T14:09:29;3.83;;;2.40;;
71464;SDS011;59274;49.874;9.154;2023-08-17T14:11:55;4.63;;;2.63;;
71464;SDS011;59274;49.874;9.154;2023-08-17T14:14:20;3.73;;;2.50;;
71464;SDS011;59274;49.874;9.154;2023-08-17T14:16:46;4.30;;;2.63;;
71464;SDS011;59274;49.874;9.154;2023-08-17T14:19:11;4.13;;;2.40;;
71464;SDS011;59274;49.874;9.154;2023-08-17T14:21:37;5.13;;;3.00;;
71464;SDS011;59274;49.874;9.154;2023-08-17T14:24:02;3.97;;;2.43;;
71464;SDS011;59274;49.874;9.154;2023-08-17T14:26:28;4.87;;;2.70;;
71464;SDS011;59274;49.874;9.154;2023-08-17T14:28:53;3.93;;;2.40;;
71464;SDS011;59274;49.874;9.154;2023-08-17T14:31:19;4.40;;;2.60;;
71464;SDS011;59274;49.874;9.154;2023-08-17T14:33:45;4.88;;;2.55;;
71464;SDS011;59274;49.874;9.154;2023-08-17T14:36:14;3.90;;;2.60;;
71464;SDS011;59274;49.874;9.154;2023-08-17T14:38:41;4.03;;;2.50;;
71464;SDS011;59274;49.874;9.154;2023-08-17T14:41:07;3.67;;;2.25;;
71464;SDS011;59274;49.874;9.154;2023-08-17T14:43:33;4.93;;;2.90;;
71464;SDS011;59274;49.874;9.154;2023-08-17T14:45:59;4.97;;;2.50;;
71464;SDS011;59274;49.874;9.154;2023-08-17T14:48:24;5.20;;;2.45;;
71464;SDS011;59274;49.874;9.154;2023-08-17T14:50:50;3.53;;;2.33;;
71464;SDS011;59274;49.874;9.154;2023-08-17T14:53:16;4.13;;;2.57;;
71464;SDS011;59274;49.874;9.154;2023-08-17T14:55:41;5.00;;;2.67;;
71464;SDS011;59274;49.874;9.154;2023-08-17T14:58:07;4.73;;;2.87;;
71464;SDS011;59274;49.874;9.154;2023-08-17T15:00:32;3.85;;;2.30;;
71464;SDS011;59274;49.874;9.154;2023-08-17T15:02:58;4.00;;;2.43;;
71464;SDS011;59274;49.874;9.154;2023-08-17T15:05:24;4.00;;;2.40;;